Terminal Aerodrome Forecast
Issued by NWS Sioux Falls, SD

Home | Current Version | Previous Version | Text Only | Print | Product List | Glossary On
Versions: 1 2 3 4 5 6 7 8 9 10 11 12 13 14 15 16 17 18 19 20 21 22 23 24 25 26 27 28 29 30 31 32 33 34 35
000
FTUS43 KFSD 301136
TAFSUX
TAF
KSUX 301136Z 3012/3112 02013KT P6SM -DZ OVC008
     FM301900 02011KT P6SM OVC012
     FM310400 02007KT P6SM OVC010
     FM310800 36006KT P6SM OVC008=

USA.gov is the U.S. government's official web portal to all federal, state and local government web resources and services.